Albany, Kentucky
Current Conditions -  °F | °C
As of 7:56 AM on Thursday 29 Jan 2015 (Local Time) from KEKQ Reporting Station
Broken Clouds Broken Clouds  
Wind Chill:   Ceiling: 6000
Heat Index:   Visibility: 7mi
Dew Point:   Wind: 18mph
Humidity: 68%   Direction: 190°S
Pressure: 30.05"   Gusts: 33mph
Location:  36.69°N, 85.13°W
Report Text: KEKQ 291356Z AUTO 19016G29KT 7SM FEW039 SCT048 BKN060 07/01 A3005 RMK AO2 T00660011 BKN V SCT P0001 PK WND 18029/1350 SLP185
Loading
Personal Weather Stations






























Interactive Weather Map New forecast layout! Learn more

10-Day Weather Forecast

Advertisements
Track Severe Weather on mobile